Time;durP1;ratioP1;P1;durP2;ratioP2;P2;SDS_P1;SDS_P2;PMS_P1;PMS_P2;Temp;Humidity;BMP_temperature;BMP_pressure;BME280_temperature;BME280_humidity;BME280_pressure;Samples;Min_cycle;Max_cycle;Signal;HPM_P1;HPM_P2
2024/03/03 00:02:20;;;;;;;34.17;31.00;;;10.50;88.20;;;;;;4988270;28;112747;-49
2024/03/03 00:04:45;;;;;;;35.25;31.75;;;10.50;88.60;;;;;;4987547;28;113261;-48
2024/03/03 00:07:11;;;;;;;36.05;32.60;;;10.50;88.40;;;;;;4987634;28;112862;-48
2024/03/03 00:09:37;;;;;;;33.83;30.83;;;10.50;88.60;;;;;;4988027;28;112740;-49
2024/03/03 00:12:03;;;;;;;36.30;32.90;;;10.50;88.50;;;;;;4988692;28;112894;-50
2024/03/03 00:14:28;;;;;;;36.33;32.78;;;10.60;88.50;;;;;;4986658;28;113261;-49
2024/03/03 00:16:54;;;;;;;35.70;32.25;;;10.60;88.60;;;;;;4973156;28;112756;-49
2024/03/03 00:19:20;;;;;;;33.25;29.90;;;10.70;88.40;;;;;;4988197;28;112632;-52
2024/03/03 00:21:45;;;;;;;33.55;30.25;;;10.70;88.30;;;;;;4987758;28;113094;-48
2024/03/03 00:24:11;;;;;;;34.47;31.20;;;10.70;88.20;;;;;;4987179;28;113226;-49
2024/03/03 00:26:37;;;;;;;35.05;31.65;;;10.80;88.30;;;;;;4987017;28;113802;-48
2024/03/03 00:29:04;;;;;;;38.22;34.33;;;10.70;88.20;;;;;;4988088;28;112783;-48
2024/03/03 00:31:29;;;;;;;37.70;34.05;;;10.80;88.30;;;;;;4988377;28;112865;-49
2024/03/03 00:33:55;;;;;;;34.10;31.00;;;10.80;88.20;;;;;;4986877;28;113214;-48
2024/03/03 00:36:22;;;;;;;33.17;29.92;;;10.70;88.20;;;;;;4986811;28;114095;-48
2024/03/03 00:38:47;;;;;;;37.17;33.53;;;10.70;88.40;;;;;;4987990;28;112955;-49
2024/03/03 00:41:13;;;;;;;36.60;32.92;;;10.70;88.30;;;;;;4989976;28;112930;-50
2024/03/03 00:43:39;;;;;;;34.83;31.50;;;10.70;88.30;;;;;;4983174;28;114453;-48
2024/03/03 00:46:05;;;;;;;36.08;32.58;;;10.80;88.30;;;;;;5016377;27;116514;-48
2024/03/03 00:48:31;;;;;;;38.63;34.88;;;10.80;88.00;;;;;;4987983;28;112821;-49
2024/03/03 00:50:56;;;;;;;39.72;35.88;;;10.80;87.90;;;;;;4981150;28;113074;-48
2024/03/03 00:53:22;;;;;;;37.63;34.03;;;10.70;88.10;;;;;;4983105;28;114658;-48
2024/03/03 00:55:50;;;;;;;40.25;36.50;;;10.70;88.00;;;;;;4982812;28;113295;-49
2024/03/03 00:58:16;;;;;;;40.45;36.60;;;10.60;88.10;;;;;;4985824;28;113704;-49
2024/03/03 01:00:42;;;;;;;44.30;39.92;;;10.60;88.30;;;;;;4985938;28;113099;-49
2024/03/03 01:03:08;;;;;;;43.10;39.10;;;10.50;88.40;;;;;;4979566;28;113266;-51
2024/03/03 01:05:35;;;;;;;45.42;41.17;;;10.60;88.40;;;;;;4969962;28;114587;-48
2024/03/03 01:08:01;;;;;;;44.42;40.30;;;10.60;88.40;;;;;;4975111;28;113137;-49
2024/03/03 01:10:27;;;;;;;41.90;37.85;;;10.60;88.30;;;;;;4980518;28;113034;-48
2024/03/03 01:12:52;;;;;;;39.30;35.58;;;10.60;88.60;;;;;;4978533;28;113899;-49
2024/03/03 01:15:18;;;;;;;38.90;35.03;;;10.70;88.40;;;;;;4976165;28;112936;-52
2024/03/03 01:17:44;;;;;;;37.63;34.28;;;10.70;88.30;;;;;;4978327;28;112608;-48
2024/03/03 01:20:11;;;;;;;39.95;36.08;;;10.60;88.40;;;;;;4976703;28;112720;-50
2024/03/03 01:22:37;;;;;;;38.28;34.53;;;10.60;88.50;;;;;;4983452;28;113182;-50
2024/03/03 01:25:03;;;;;;;36.60;32.97;;;10.70;88.50;;;;;;4983214;28;113799;-51
2024/03/03 01:27:29;;;;;;;35.65;32.35;;;10.70;88.30;;;;;;4987101;28;112880;-51
2024/03/03 01:29:55;;;;;;;33.88;30.58;;;10.80;88.20;;;;;;4974257;28;112720;-52
2024/03/03 01:32:23;;;;;;;32.22;28.98;;;10.70;88.20;;;;;;4968170;28;114730;-53
2024/03/03 01:34:49;;;;;;;29.98;27.20;;;10.60;88.20;;;;;;4970475;28;114021;-50
2024/03/03 01:37:17;;;;;;;31.17;28.25;;;10.50;88.30;;;;;;4971498;28;112600;-55
2024/03/03 01:39:46;;;;;;;31.63;28.52;;;10.60;88.20;;;;;;4966863;28;112837;-55
2024/03/03 01:42:13;;;;;;;34.80;31.30;;;10.60;88.10;;;;;;4966049;28;113211;-50
2024/03/03 01:44:39;;;;;;;27.95;25.25;;;10.40;88.10;;;;;;4966161;28;112669;-48
2024/03/03 01:47:04;;;;;;;27.05;24.23;;;10.50;88.10;;;;;;4965020;28;113500;-49
2024/03/03 01:49:34;;;;;;;27.42;24.75;;;10.40;87.90;;;;;;4967066;28;113093;-50
2024/03/03 01:52:01;;;;;;;25.52;23.17;;;10.50;88.10;;;;;;4965910;28;114082;-48
2024/03/03 01:54:28;;;;;;;22.75;20.60;;;10.40;87.80;;;;;;4965713;28;113669;-48
2024/03/03 01:56:56;;;;;;;23.95;21.75;;;10.40;87.90;;;;;;4966757;28;112720;-48
2024/03/03 01:59:22;;;;;;;25.23;22.77;;;10.40;87.90;;;;;;4966524;28;112671;-51
2024/03/03 02:01:49;;;;;;;25.65;22.98;;;10.40;87.80;;;;;;4965915;28;113681;-48
2024/03/03 02:04:15;;;;;;;24.80;22.13;;;10.40;87.90;;;;;;4965731;28;112720;-48
2024/03/03 02:06:42;;;;;;;25.17;22.80;;;10.40;87.80;;;;;;4966723;28;112712;-50
2024/03/03 02:09:08;;;;;;;24.30;22.17;;;10.40;87.80;;;;;;4966606;28;112697;-48
2024/03/03 02:11:34;;;;;;;26.05;23.55;;;10.40;87.70;;;;;;4965770;28;113324;-55
2024/03/03 02:14:00;;;;;;;24.75;22.50;;;10.40;87.80;;;;;;4965210;28;113952;-51
2024/03/03 02:16:26;;;;;;;23.92;21.45;;;10.40;87.70;;;;;;4966769;28;112692;-48
2024/03/03 02:18:51;;;;;;;26.27;22.75;;;10.40;87.60;;;;;;4986559;28;112919;-51
2024/03/03 02:21:25;;;;;;;23.10;20.83;;;10.30;87.70;;;;;;4983952;28;114635;-48
2024/03/03 02:23:53;;;;;;;22.70;20.58;;;10.30;87.90;;;;;;4984889;28;114207;-48
2024/03/03 02:26:21;;;;;;;23.02;20.85;;;10.30;87.90;;;;;;4986401;28;112605;-49
2024/03/03 02:28:49;;;;;;;20.02;18.08;;;10.30;87.80;;;;;;4986447;28;112791;-49
2024/03/03 02:31:15;;;;;;;20.58;18.67;;;10.30;87.80;;;;;;4985093;28;115810;-48
2024/03/03 02:33:40;;;;;;;19.27;17.38;;;10.30;87.90;;;;;;4985049;28;112766;-48
2024/03/03 02:36:06;;;;;;;18.30;16.58;;;10.30;87.70;;;;;;4985942;28;112760;-51
2024/03/03 02:38:32;;;;;;;18.20;16.33;;;10.10;87.90;;;;;;4985720;28;112806;-48
2024/03/03 02:40:57;;;;;;;20.92;18.77;;;10.10;88.00;;;;;;4985395;28;114700;-50
2024/03/03 02:43:23;;;;;;;19.33;17.48;;;10.00;88.20;;;;;;4985221;28;112685;-52
2024/03/03 02:45:49;;;;;;;19.70;17.65;;;10.10;87.80;;;;;;4985937;28;112541;-49
2024/03/03 02:48:14;;;;;;;19.63;17.63;;;10.10;87.60;;;;;;4985719;28;112961;-50
2024/03/03 02:50:40;;;;;;;18.60;16.95;;;9.90;88.00;;;;;;4985028;28;113855;-50
2024/03/03 02:53:06;;;;;;;18.83;16.92;;;10.00;87.80;;;;;;4984789;28;113857;-51
2024/03/03 02:55:31;;;;;;;18.30;16.50;;;10.00;87.70;;;;;;4985785;28;113066;-49
2024/03/03 02:57:57;;;;;;;18.98;17.13;;;9.90;88.00;;;;;;4986121;28;112859;-50
2024/03/03 03:00:23;;;;;;;20.13;18.23;;;9.90;87.90;;;;;;4984961;28;114355;-48
2024/03/03 03:02:49;;;;;;;20.50;18.52;;;9.90;87.70;;;;;;4974566;28;112835;-48
2024/03/03 03:05:15;;;;;;;22.08;20.02;;;10.00;87.90;;;;;;4965997;28;112556;-48
2024/03/03 03:07:40;;;;;;;23.58;21.20;;;10.10;87.80;;;;;;4968055;28;114385;-48
2024/03/03 03:10:07;;;;;;;24.10;21.55;;;10.20;87.50;;;;;;4981787;28;113469;-48
2024/03/03 03:12:33;;;;;;;29.48;25.73;;;10.10;87.60;;;;;;4970507;28;114144;-50
2024/03/03 03:14:58;;;;;;;35.70;27.70;;;10.10;87.60;;;;;;4985539;28;112882;-48
2024/03/03 03:17:24;;;;;;;35.47;28.45;;;10.20;87.70;;;;;;4985842;28;112875;-51
2024/03/03 03:19:50;;;;;;;40.00;29.40;;;10.10;88.00;;;;;;4978947;28;113251;-48
2024/03/03 03:22:16;;;;;;;40.35;31.90;;;10.10;88.10;;;;;;4976568;28;113046;-48
2024/03/03 03:24:42;;;;;;;41.53;31.00;;;10.20;88.00;;;;;;4984024;28;112734;-52
2024/03/03 03:27:07;;;;;;;40.80;30.83;;;10.30;87.90;;;;;;5017731;27;112778;-50
2024/03/03 03:29:33;;;;;;;39.53;31.50;;;10.30;87.90;;;;;;4983205;28;116741;-48
2024/03/03 03:31:59;;;;;;;50.92;32.47;;;10.20;88.10;;;;;;4984425;28;113953;-51
2024/03/03 03:34:25;;;;;;;70.75;30.50;;;10.30;88.10;;;;;;4985174;28;112809;-48
2024/03/03 03:36:51;;;;;;;35.78;29.08;;;10.10;88.20;;;;;;4979875;28;112871;-48
2024/03/03 03:39:16;;;;;;;93.30;29.38;;;10.20;88.60;;;;;;4976090;28;113122;-48
2024/03/03 03:41:46;;;;;;;64.97;29.67;;;10.20;88.50;;;;;;4984394;28;113131;-51
2024/03/03 03:44:12;;;;;;;62.05;27.88;;;10.20;88.70;;;;;;4985243;28;112789;-48
2024/03/03 03:46:38;;;;;;;57.15;27.00;;;10.10;88.60;;;;;;4985153;28;112956;-48
2024/03/03 03:49:08;;;;;;;57.30;26.65;;;10.20;88.60;;;;;;4984144;28;114974;-49
2024/03/03 03:51:34;;;;;;;69.78;27.20;;;10.20;88.70;;;;;;4986915;28;113910;-53
2024/03/03 03:54:00;;;;;;;48.08;31.08;;;10.20;88.40;;;;;;4988477;28;112856;-48
2024/03/03 03:56:25;;;;;;;73.45;29.08;;;10.20;88.70;;;;;;4988791;28;112749;-50
2024/03/03 03:58:51;;;;;;;72.82;32.40;;;10.10;88.60;;;;;;4987454;28;114580;-53
2024/03/03 04:01:20;;;;;;;74.63;28.83;;;10.30;89.20;;;;;;4987649;28;113243;-49
2024/03/03 04:03:46;;;;;;;62.83;29.00;;;10.00;89.20;;;;;;4988149;28;112551;-50
2024/03/03 04:06:12;;;;;;;45.60;29.25;;;10.00;89.10;;;;;;4988556;28;112831;-50
2024/03/03 04:08:38;;;;;;;52.67;30.02;;;9.90;89.60;;;;;;4987401;28;113202;-48
2024/03/03 04:11:03;;;;;;;67.78;31.85;;;10.00;89.60;;;;;;4981629;28;113031;-50
2024/03/03 04:13:29;;;;;;;53.28;30.83;;;10.00;89.60;;;;;;4980201;28;112632;-51
2024/03/03 04:15:55;;;;;;;49.58;28.80;;;10.10;89.60;;;;;;4988294;28;112842;-54
2024/03/03 04:18:21;;;;;;;65.10;31.02;;;10.10;89.30;;;;;;4987427;28;113436;-51
2024/03/03 04:20:46;;;;;;;50.88;28.73;;;10.00;89.30;;;;;;4987432;28;113044;-51
2024/03/03 04:23:12;;;;;;;48.35;30.30;;;10.00;89.40;;;;;;4988172;28;112666;-48
2024/03/03 04:25:38;;;;;;;42.63;27.75;;;10.00;89.40;;;;;;4988051;28;113064;-48
2024/03/03 04:28:04;;;;;;;45.33;27.27;;;9.90;89.20;;;;;;4986846;28;114436;-48
2024/03/03 04:30:29;;;;;;;47.33;25.95;;;9.90;89.40;;;;;;4986983;28;114146;-49
2024/03/03 04:32:55;;;;;;;36.42;22.38;;;9.90;88.90;;;;;;4987888;28;112550;-49
2024/03/03 04:35:20;;;;;;;46.78;19.77;;;9.80;89.20;;;;;;4988098;28;112684;-49
2024/03/03 04:37:46;;;;;;;31.77;20.13;;;9.70;89.10;;;;;;4986757;28;113361;-50
2024/03/03 04:40:12;;;;;;;38.15;21.90;;;9.80;89.40;;;;;;4987323;28;113266;-49
2024/03/03 04:42:38;;;;;;;46.85;22.73;;;9.90;89.20;;;;;;4988300;28;112609;-48
2024/03/03 04:45:06;;;;;;;79.93;21.75;;;9.90;88.90;;;;;;4987819;28;112810;-48
2024/03/03 04:47:31;;;;;;;35.03;20.65;;;9.90;88.90;;;;;;4986828;28;114734;-50
2024/03/03 04:49:57;;;;;;;41.53;19.63;;;9.80;89.40;;;;;;4986680;28;112871;-49
2024/03/03 04:52:23;;;;;;;30.33;20.02;;;9.90;89.50;;;;;;4986115;28;112827;-48
2024/03/03 04:54:48;;;;;;;41.67;20.23;;;9.80;89.40;;;;;;4987760;28;113188;-53
2024/03/03 04:57:14;;;;;;;51.42;21.33;;;9.90;89.40;;;;;;4986850;28;113409;-52
2024/03/03 04:59:40;;;;;;;39.53;20.40;;;10.00;89.40;;;;;;4986583;28;112753;-52
2024/03/03 05:02:05;;;;;;;30.88;20.23;;;10.00;89.00;;;;;;4987272;28;112779;-48
2024/03/03 05:04:31;;;;;;;46.97;20.73;;;10.00;89.10;;;;;;4987499;28;112793;-48
2024/03/03 05:06:57;;;;;;;38.65;20.92;;;10.00;89.00;;;;;;4986753;28;113241;-48
2024/03/03 05:09:22;;;;;;;37.85;20.23;;;9.90;89.20;;;;;;4986652;28;113348;-50
2024/03/03 05:11:48;;;;;;;34.75;20.50;;;9.90;89.50;;;;;;4975376;28;112618;-48
2024/03/03 05:14:14;;;;;;;42.20;21.80;;;9.90;89.60;;;;;;4985364;28;113256;-48
2024/03/03 05:16:40;;;;;;;52.28;21.90;;;9.90;89.60;;;;;;4986487;28;113180;-49
2024/03/03 05:19:08;;;;;;;42.83;22.77;;;9.90;89.50;;;;;;4986181;28;112929;-49
2024/03/03 05:21:34;;;;;;;34.00;21.65;;;9.90;89.90;;;;;;4986900;28;112729;-48
2024/03/03 05:24:01;;;;;;;44.97;22.30;;;10.00;89.70;;;;;;4987226;28;113190;-52
2024/03/03 05:26:26;;;;;;;44.80;24.05;;;10.00;89.60;;;;;;4986493;28;113236;-48
2024/03/03 05:28:54;;;;;;;54.58;24.20;;;10.10;89.40;;;;;;4986035;28;113219;-48
2024/03/03 05:31:19;;;;;;;48.53;23.67;;;10.00;89.30;;;;;;4987453;28;113127;-48
2024/03/03 05:33:45;;;;;;;58.13;24.38;;;10.10;89.40;;;;;;4987345;28;112758;-48
2024/03/03 05:36:13;;;;;;;77.85;25.02;;;10.10;89.50;;;;;;4985623;28;114172;-48
2024/03/03 05:38:42;;;;;;;39.67;22.17;;;10.10;89.40;;;;;;4985861;28;112670;-50
2024/03/03 05:41:07;;;;;;;81.25;23.58;;;10.00;89.70;;;;;;4985389;28;113008;-51
2024/03/03 05:43:33;;;;;;;50.00;24.33;;;9.90;89.60;;;;;;4987013;28;113298;-48
2024/03/03 05:45:59;;;;;;;47.20;23.52;;;10.00;90.00;;;;;;4986173;28;113915;-49
2024/03/03 05:48:24;;;;;;;77.25;23.77;;;10.10;90.00;;;;;;4985578;28;113815;-49
2024/03/03 05:50:50;;;;;;;46.67;24.25;;;10.20;89.90;;;;;;4986607;28;112966;-49
2024/03/03 05:53:16;;;;;;;45.17;23.27;;;10.20;89.80;;;;;;4985294;28;113104;-51
2024/03/03 05:55:41;;;;;;;53.17;21.83;;;10.30;89.50;;;;;;4984551;28;114627;-52
2024/03/03 05:58:07;;;;;;;40.38;21.17;;;10.30;89.60;;;;;;4985837;28;113498;-49
2024/03/03 06:00:33;;;;;;;39.92;22.08;;;10.20;89.20;;;;;;4986809;28;113094;-52
2024/03/03 06:02:58;;;;;;;83.38;24.55;;;10.30;89.40;;;;;;4986746;28;112723;-52
2024/03/03 06:05:24;;;;;;;62.55;23.40;;;10.30;89.10;;;;;;4985395;28;113500;-51
2024/03/03 06:07:51;;;;;;;48.80;24.05;;;10.20;89.30;;;;;;4985475;28;113632;-49
2024/03/03 06:10:16;;;;;;;46.58;23.33;;;10.20;89.70;;;;;;4986154;28;112971;-51
2024/03/03 06:12:42;;;;;;;42.95;21.92;;;10.30;89.60;;;;;;4971970;28;112972;-48
2024/03/03 06:15:08;;;;;;;41.45;22.73;;;10.30;89.40;;;;;;4985621;28;113898;-51
2024/03/03 06:17:34;;;;;;;43.25;23.77;;;10.30;89.50;;;;;;4985263;28;113868;-54
2024/03/03 06:20:00;;;;;;;40.33;23.30;;;10.30;89.50;;;;;;4986379;28;112930;-52
2024/03/03 06:22:25;;;;;;;41.10;23.23;;;10.30;89.40;;;;;;4986237;28;112695;-55
2024/03/03 06:24:51;;;;;;;43.15;24.00;;;10.40;89.40;;;;;;4985306;28;114882;-48
2024/03/03 06:27:17;;;;;;;52.17;26.00;;;10.40;89.10;;;;;;4985036;28;113633;-48
2024/03/03 06:29:42;;;;;;;51.97;26.85;;;10.30;89.30;;;;;;4986220;28;112639;-48
2024/03/03 06:32:08;;;;;;;50.15;26.63;;;10.30;89.50;;;;;;4986477;28;112677;-48
2024/03/03 06:34:36;;;;;;;53.08;28.00;;;10.30;89.50;;;;;;4983312;28;114291;-48
2024/03/03 06:37:02;;;;;;;53.88;28.88;;;10.40;89.40;;;;;;4985240;28;112651;-51
2024/03/03 06:39:27;;;;;;;56.38;28.98;;;10.40;89.30;;;;;;4986076;28;112908;-48
2024/03/03 06:41:53;;;;;;;52.85;28.73;;;10.50;89.10;;;;;;4986426;28;112872;-50
2024/03/03 06:44:19;;;;;;;54.22;28.92;;;10.50;89.10;;;;;;4985551;28;113178;-50
2024/03/03 06:46:45;;;;;;;62.10;30.00;;;10.60;88.80;;;;;;4985096;28;112714;-49
2024/03/03 06:49:11;;;;;;;60.13;31.48;;;10.70;88.70;;;;;;4985455;28;112724;-48
2024/03/03 06:51:37;;;;;;;62.08;32.22;;;10.70;88.80;;;;;;4986209;28;112884;-49
2024/03/03 06:54:04;;;;;;;59.05;33.95;;;10.50;88.80;;;;;;4985044;28;113589;-51
2024/03/03 06:56:30;;;;;;;63.17;35.17;;;10.50;89.00;;;;;;4984533;28;113799;-48
2024/03/03 06:58:55;;;;;;;56.97;34.15;;;10.60;89.00;;;;;;4985872;28;112526;-49
2024/03/03 07:01:21;;;;;;;58.55;33.90;;;10.60;89.00;;;;;;4985852;28;113017;-49
2024/03/03 07:06:33;;;;;;;55.95;33.45;;;10.70;88.60;;;;;;4984967;28;112508;-48
2024/03/03 07:09:00;;;;;;;59.42;37.42;;;10.70;88.80;;;;;;4984416;28;112705;-51
2024/03/03 07:11:26;;;;;;;56.28;35.85;;;10.80;88.50;;;;;;4976921;28;112724;-52
2024/03/03 07:13:51;;;;;;;51.25;35.05;;;10.90;88.50;;;;;;4979735;28;113611;-50
2024/03/03 07:16:17;;;;;;;51.08;33.80;;;11.10;88.20;;;;;;4984384;28;113922;-48
2024/03/03 07:18:43;;;;;;;49.80;32.95;;;11.00;87.80;;;;;;4985733;28;112742;-50
2024/03/03 07:21:10;;;;;;;51.38;34.17;;;10.90;88.40;;;;;;4985727;28;112957;-51
2024/03/03 07:23:36;;;;;;;50.38;33.92;;;11.00;88.00;;;;;;4984548;28;114497;-50
2024/03/03 07:26:01;;;;;;;50.00;35.08;;;11.00;87.90;;;;;;4987758;28;113999;-50
2024/03/03 07:28:27;;;;;;;49.22;35.33;;;11.10;88.10;;;;;;4989169;28;113201;-49
2024/03/03 07:30:53;;;;;;;42.92;32.45;;;11.20;87.70;;;;;;4989376;28;112888;-48
2024/03/03 07:33:18;;;;;;;42.08;31.60;;;11.10;87.90;;;;;;4988329;28;113406;-50
2024/03/03 07:35:44;;;;;;;41.55;32.05;;;11.20;87.80;;;;;;4987932;28;113859;-48
2024/03/03 07:38:10;;;;;;;41.78;32.65;;;11.10;87.60;;;;;;4988554;28;112910;-48
2024/03/03 07:40:37;;;;;;;41.70;33.05;;;11.10;87.30;;;;;;4988533;28;113109;-49
2024/03/03 07:43:05;;;;;;;41.60;32.55;;;11.20;87.70;;;;;;4987843;28;114467;-49
2024/03/03 07:45:31;;;;;;;41.97;31.35;;;11.30;87.40;;;;;;4987639;28;112531;-49
2024/03/03 07:47:57;;;;;;;42.90;32.95;;;11.40;87.30;;;;;;4988676;28;112617;-48
2024/03/03 07:50:22;;;;;;;40.10;32.92;;;11.50;87.00;;;;;;4989070;28;115500;-48
2024/03/03 07:52:48;;;;;;;38.25;33.60;;;11.30;87.00;;;;;;4987688;28;114484;-49
2024/03/03 07:55:14;;;;;;;36.42;31.73;;;11.30;87.20;;;;;;4987655;28;112820;-49
2024/03/03 07:57:39;;;;;;;35.60;31.70;;;11.40;87.40;;;;;;4988844;28;112709;-50
2024/03/03 08:00:06;;;;;;;35.67;31.80;;;11.50;87.10;;;;;;4988387;28;112671;-51
2024/03/03 08:02:32;;;;;;;34.00;30.33;;;11.70;87.10;;;;;;4987391;28;114373;-52
2024/03/03 08:04:58;;;;;;;33.67;30.05;;;12.10;86.20;;;;;;4987092;28;113780;-48
2024/03/03 08:07:24;;;;;;;30.67;27.40;;;12.30;85.40;;;;;;4988422;28;112568;-50
2024/03/03 08:09:51;;;;;;;27.63;24.55;;;12.20;84.60;;;;;;4988608;28;113391;-50
2024/03/03 08:12:17;;;;;;;28.33;25.25;;;12.20;84.80;;;;;;4973279;28;114754;-49
2024/03/03 08:14:43;;;;;;;27.42;24.65;;;12.30;85.20;;;;;;4987327;28;114375;-48
2024/03/03 08:17:08;;;;;;;24.95;22.45;;;12.30;84.90;;;;;;4988421;28;112962;-50
2024/03/03 08:19:34;;;;;;;23.88;21.20;;;12.10;85.00;;;;;;4988308;28;112859;-48
2024/03/03 08:22:00;;;;;;;23.20;20.85;;;12.00;85.20;;;;;;4987539;28;113222;-53
2024/03/03 08:24:26;;;;;;;23.80;21.45;;;12.00;85.50;;;;;;4987191;28;112948;-51
2024/03/03 08:26:52;;;;;;;24.00;21.55;;;12.00;85.60;;;;;;4988071;28;112841;-51
2024/03/03 08:29:17;;;;;;;24.30;21.30;;;12.10;85.60;;;;;;4988221;28;112676;-53
2024/03/03 08:31:44;;;;;;;24.42;21.52;;;12.00;85.50;;;;;;4987426;28;113327;-50
2024/03/03 08:34:11;;;;;;;21.88;19.52;;;12.20;85.70;;;;;;4986771;28;113997;-48
2024/03/03 08:36:39;;;;;;;22.55;20.20;;;12.30;84.90;;;;;;4987129;28;112715;-49
2024/03/03 08:39:05;;;;;;;21.20;19.13;;;12.30;84.90;;;;;;4987905;28;112724;-48
2024/03/03 08:41:32;;;;;;;20.60;18.55;;;12.40;84.80;;;;;;4986617;28;113120;-52
2024/03/03 08:43:59;;;;;;;19.10;17.25;;;12.30;84.60;;;;;;4987147;28;113481;-49
2024/03/03 08:46:24;;;;;;;19.33;17.38;;;12.30;84.90;;;;;;4985926;28;112641;-48
2024/03/03 08:48:50;;;;;;;18.65;16.75;;;12.30;85.00;;;;;;4986912;28;113098;-48
2024/03/03 08:51:16;;;;;;;20.00;17.88;;;12.20;85.00;;;;;;4970972;28;114525;-49
2024/03/03 08:53:41;;;;;;;18.52;16.35;;;12.20;85.20;;;;;;4968390;28;113580;-49
2024/03/03 08:56:07;;;;;;;17.65;15.90;;;12.30;84.70;;;;;;4972316;28;113207;-52
2024/03/03 08:58:33;;;;;;;19.27;17.35;;;12.30;84.90;;;;;;4972995;28;112835;-49
2024/03/03 09:00:58;;;;;;;18.67;16.90;;;12.30;85.00;;;;;;4972360;28;113166;-48
2024/03/03 09:03:24;;;;;;;20.48;18.38;;;12.20;84.60;;;;;;4968579;28;112712;-48
2024/03/03 09:05:50;;;;;;;19.08;17.08;;;12.20;85.20;;;;;;4972436;28;113012;-49
2024/03/03 09:08:15;;;;;;;20.52;16.50;;;12.30;84.60;;;;;;4970710;28;112798;-53
2024/03/03 09:10:41;;;;;;;18.63;16.85;;;12.30;84.70;;;;;;4966764;28;113868;-52
2024/03/03 09:13:07;;;;;;;17.80;16.08;;;12.40;84.90;;;;;;4966765;28;114081;-49
2024/03/03 09:15:32;;;;;;;17.95;16.25;;;12.50;84.40;;;;;;4970389;28;113085;-53
2024/03/03 09:17:58;;;;;;;16.55;14.95;;;12.50;84.60;;;;;;4967505;28;114526;-54
2024/03/03 09:20:24;;;;;;;15.93;14.50;;;12.40;84.50;;;;;;4968136;28;113815;-51
2024/03/03 09:22:50;;;;;;;16.27;14.60;;;12.60;84.40;;;;;;4966124;28;113683;-48
2024/03/03 09:25:19;;;;;;;16.05;14.38;;;12.50;84.20;;;;;;4969014;28;112686;-50
2024/03/03 09:27:44;;;;;;;16.25;14.65;;;12.70;83.80;;;;;;4975704;28;112856;-49
2024/03/03 09:30:10;;;;;;;15.45;13.55;;;12.90;83.50;;;;;;4975800;28;113253;-49
2024/03/03 09:32:36;;;;;;;15.60;13.95;;;13.00;83.20;;;;;;4978606;28;114374;-52
2024/03/03 09:35:04;;;;;;;14.73;13.23;;;13.00;83.20;;;;;;4970822;28;113350;-49
2024/03/03 09:37:29;;;;;;;15.23;13.65;;;12.90;83.30;;;;;;4979259;28;112776;-50
2024/03/03 09:39:55;;;;;;;15.23;13.80;;;12.90;83.50;;;;;;4979286;28;113284;-50
2024/03/03 09:42:20;;;;;;;14.88;13.27;;;13.40;82.90;;;;;;4966751;28;112988;-49
2024/03/03 09:44:49;;;;;;;14.02;12.80;;;13.20;82.70;;;;;;4970906;28;112908;-49
2024/03/03 09:47:17;;;;;;;14.98;13.48;;;13.30;82.30;;;;;;4969438;28;113162;-50
2024/03/03 09:49:43;;;;;;;14.27;12.85;;;13.60;82.20;;;;;;4966588;28;113338;-54
2024/03/03 09:52:13;;;;;;;13.85;12.43;;;13.90;80.70;;;;;;4985424;28;114266;-49
2024/03/03 09:54:41;;;;;;;13.93;12.32;;;14.60;79.10;;;;;;4973237;28;112800;-50
2024/03/03 09:57:13;;;;;;;12.57;11.27;;;15.00;76.90;;;;;;4969043;28;112769;-50
2024/03/03 09:59:40;;;;;;;11.17;10.07;;;15.80;75.90;;;;;;4972509;28;114971;-49
2024/03/03 10:02:15;;;;;;;12.55;11.32;;;16.20;74.10;;;;;;4970283;28;113688;-50
2024/03/03 10:04:48;;;;;;;13.55;12.18;;;15.80;74.40;;;;;;4966544;28;112728;-51
2024/03/03 10:07:24;;;;;;;11.43;10.43;;;15.60;75.30;;;;;;4966423;28;112685;-49
2024/03/03 10:10:08;;;;;;;12.43;11.20;;;15.10;74.90;;;;;;4970206;28;114466;-49
2024/03/03 10:12:34;;;;;;;12.23;11.13;;;14.80;77.00;;;;;;4969833;28;113018;-49
2024/03/03 10:15:04;;;;;;;12.23;10.93;;;14.70;76.90;;;;;;4976475;28;112839;-50
2024/03/03 10:17:30;;;;;;;11.98;10.90;;;14.70;76.90;;;;;;4966048;28;112727;-49
2024/03/03 10:20:06;;;;;;;12.52;11.25;;;14.70;77.80;;;;;;4965536;28;113317;-50
2024/03/03 10:22:33;;;;;;;11.88;10.68;;;15.00;77.10;;;;;;4965375;28;113207;-49
2024/03/03 10:25:10;;;;;;;13.27;11.98;;;14.60;77.10;;;;;;4966693;28;112669;-49
2024/03/03 10:27:37;;;;;;;12.60;11.50;;;14.70;77.60;;;;;;4966208;28;112743;-49
2024/03/03 10:30:07;;;;;;;11.68;10.57;;;14.90;77.30;;;;;;4965701;28;113290;-51
2024/03/03 10:32:32;;;;;;;11.27;10.02;;;15.40;76.10;;;;;;4963747;28;112802;-49
2024/03/03 10:35:00;;;;;;;10.25;9.25;;;15.60;73.80;;;;;;4981180;28;114452;-50
2024/03/03 10:37:26;;;;;;;10.00;8.63;;;16.10;73.80;;;;;;4973409;28;112836;-50
2024/03/03 10:39:53;;;;;;;10.13;9.13;;;16.40;72.60;;;;;;4968209;28;113359;-49
2024/03/03 10:42:18;;;;;;;10.25;9.23;;;17.10;70.40;;;;;;4983917;28;113903;-49
2024/03/03 10:44:45;;;;;;;12.07;10.02;;;17.90;68.20;;;;;;4982162;28;112905;-49
2024/03/03 10:47:13;;;;;;;10.05;9.05;;;17.70;67.10;;;;;;4966154;28;113834;-52
2024/03/03 10:49:40;;;;;;;9.95;8.90;;;18.10;65.60;;;;;;4965709;28;114643;-49
2024/03/03 10:52:10;;;;;;;25.73;9.30;;;17.70;67.60;;;;;;4965636;28;113837;-50
2024/03/03 10:54:37;;;;;;;11.27;9.38;;;18.10;66.30;;;;;;4966366;28;112896;-50
2024/03/03 10:57:03;;;;;;;10.43;9.23;;;18.20;65.70;;;;;;4966543;28;112901;-49
2024/03/03 10:59:33;;;;;;;10.18;8.55;;;18.60;64.40;;;;;;4967220;28;113372;-50
2024/03/03 11:02:01;;;;;;;10.40;9.30;;;20.30;60.70;;;;;;4968966;28;114046;-53
2024/03/03 11:04:31;;;;;;;10.45;8.32;;;20.50;60.40;;;;;;4974173;28;112533;-52
2024/03/03 11:07:03;;;;;;;11.88;8.73;;;22.00;56.10;;;;;;4970496;28;112479;-52
2024/03/03 11:09:29;;;;;;;9.35;8.45;;;23.90;52.20;;;;;;4968906;28;113347;-51
2024/03/03 11:12:00;;;;;;;12.00;8.98;;;23.70;51.70;;;;;;4969047;28;112706;-50
2024/03/03 11:14:35;;;;;;;9.30;8.40;;;22.40;53.50;;;;;;4974096;28;112874;-50
2024/03/03 11:17:04;;;;;;;9.23;7.95;;;22.40;54.00;;;;;;4981625;28;112740;-53
2024/03/03 11:19:47;;;;;;;9.05;8.23;;;23.70;51.00;;;;;;4970845;28;113181;-53
2024/03/03 11:22:24;;;;;;;9.05;7.90;;;25.50;46.50;;;;;;4968695;28;113080;-49
2024/03/03 11:24:57;;;;;;;9.48;8.50;;;26.90;43.60;;;;;;4982309;28;112689;-52
2024/03/03 11:27:26;;;;;;;10.05;8.45;;;27.60;42.30;;;;;;4987796;28;113279;-52
2024/03/03 11:29:52;;;;;;;8.63;7.72;;;27.00;42.70;;;;;;4986115;28;114839;-48
2024/03/03 11:32:21;;;;;;;9.13;8.25;;;27.20;42.40;;;;;;4975653;28;112648;-56
2024/03/03 11:34:49;;;;;;;8.98;8.10;;;27.50;42.10;;;;;;4971270;28;112992;-52
2024/03/03 11:37:15;;;;;;;9.35;8.30;;;28.50;40.50;;;;;;4973427;28;112621;-54
2024/03/03 11:39:58;;;;;;;9.25;8.38;;;29.50;38.80;;;;;;4975268;28;113682;-51
2024/03/03 11:42:32;;;;;;;8.20;7.40;;;28.00;40.30;;;;;;4977795;28;113806;-50
2024/03/03 11:44:59;;;;;;;9.40;7.35;;;25.70;43.40;;;;;;4976860;28;113159;-51
2024/03/03 11:47:29;;;;;;;7.97;7.22;;;23.70;46.70;;;;;;4982678;28;112742;-50
2024/03/03 11:49:55;;;;;;;12.15;8.07;;;22.30;50.10;;;;;;4979827;28;113196;-49
2024/03/03 11:52:41;;;;;;;9.45;8.40;;;21.30;52.10;;;;;;4968350;28;112745;-50
2024/03/03 11:55:14;;;;;;;8.88;7.75;;;21.40;53.60;;;;;;4969362;28;112727;-50
2024/03/03 11:57:42;;;;;;;8.15;6.55;;;22.70;50.70;;;;;;4977403;28;112868;-51
2024/03/03 12:00:13;;;;;;;8.07;6.18;;;21.90;51.10;;;;;;4984024;28;114647;-51
2024/03/03 12:02:41;;;;;;;8.20;6.45;;;21.10;52.30;;;;;;4977857;28;113127;-50
2024/03/03 12:05:11;;;;;;;8.70;6.60;;;20.00;55.20;;;;;;4972734;28;114136;-51
2024/03/03 12:07:43;;;;;;;9.00;5.97;;;19.80;56.50;;;;;;4992011;28;113189;-50
2024/03/03 12:10:20;;;;;;;9.45;6.50;;;20.80;55.00;;;;;;4989532;28;113412;-51
2024/03/03 12:12:52;;;;;;;10.18;6.20;;;20.50;55.00;;;;;;4990045;28;113179;-50
2024/03/03 12:15:19;;;;;;;;;;;21.90;52.40;;;;;;4991198;28;112710;-51
2024/03/03 12:17:48;;;;;;;7.22;5.18;;;23.60;48.00;;;;;;4992887;28;113215;-51
2024/03/03 12:20:16;;;;;;;7.30;4.63;;;24.00;45.90;;;;;;4988261;28;113329;-51
2024/03/03 12:22:43;;;;;;;7.25;4.60;;;24.40;44.70;;;;;;4999691;28;112950;-50